sensor_id;sensor_type;location;lat;lon;timestamp;P1;durP1;ratioP1;P2;durP2;ratioP2
7813;SDS011;3952;48.364;16.022;2022-08-02T00:01:05;2.20;;;2.10;;
7813;SDS011;3952;48.364;16.022;2022-08-02T00:03:32;5.33;;;2.10;;
7813;SDS011;3952;48.364;16.022;2022-08-02T00:06:00;1.93;;;1.83;;
7813;SDS011;3952;48.364;16.022;2022-08-02T00:08:28;1.20;;;1.20;;
7813;SDS011;3952;48.364;16.022;2022-08-02T00:10:55;2.00;;;1.73;;
7813;SDS011;3952;48.364;16.022;2022-08-02T00:13:23;1.50;;;1.40;;
7813;SDS011;3952;48.364;16.022;2022-08-02T00:15:50;2.50;;;1.30;;
7813;SDS011;3952;48.364;16.022;2022-08-02T00:18:17;2.87;;;1.30;;
7813;SDS011;3952;48.364;16.022;2022-08-02T00:20:44;1.73;;;1.37;;
7813;SDS011;3952;48.364;16.022;2022-08-02T00:23:12;0.90;;;0.90;;
7813;SDS011;3952;48.364;16.022;2022-08-02T00:25:40;1.20;;;1.20;;
7813;SDS011;3952;48.364;16.022;2022-08-02T00:28:08;1.10;;;1.10;;
7813;SDS011;3952;48.364;16.022;2022-08-02T00:30:36;1.10;;;1.10;;
7813;SDS011;3952;48.364;16.022;2022-08-02T00:33:03;1.00;;;1.00;;
7813;SDS011;3952;48.364;16.022;2022-08-02T00:35:32;2.00;;;1.10;;
7813;SDS011;3952;48.364;16.022;2022-08-02T00:38:00;1.20;;;1.20;;
7813;SDS011;3952;48.364;16.022;2022-08-02T00:40:28;1.03;;;1.03;;
7813;SDS011;3952;48.364;16.022;2022-08-02T00:43:01;1.07;;;1.07;;
7813;SDS011;3952;48.364;16.022;2022-08-02T00:45:32;1.10;;;1.10;;
7813;SDS011;3952;48.364;16.022;2022-08-02T00:47:59;1.20;;;1.10;;
7813;SDS011;3952;48.364;16.022;2022-08-02T00:50:27;1.30;;;1.20;;
7813;SDS011;3952;48.364;16.022;2022-08-02T00:52:55;0.70;;;0.70;;
7813;SDS011;3952;48.364;16.022;2022-08-02T00:55:23;2.73;;;1.10;;
7813;SDS011;3952;48.364;16.022;2022-08-02T00:57:51;1.10;;;1.00;;
7813;SDS011;3952;48.364;16.022;2022-08-02T01:00:20;1.13;;;1.10;;
7813;SDS011;3952;48.364;16.022;2022-08-02T01:02:47;1.47;;;1.40;;
7813;SDS011;3952;48.364;16.022;2022-08-02T01:05:15;3.67;;;1.20;;
7813;SDS011;3952;48.364;16.022;2022-08-02T01:07:42;1.10;;;1.10;;
7813;SDS011;3952;48.364;16.022;2022-08-02T01:10:10;1.70;;;1.20;;
7813;SDS011;3952;48.364;16.022;2022-08-02T01:12:37;1.10;;;1.10;;
7813;SDS011;3952;48.364;16.022;2022-08-02T01:15:06;1.83;;;1.20;;
7813;SDS011;3952;48.364;16.022;2022-08-02T01:17:37;1.30;;;1.20;;
7813;SDS011;3952;48.364;16.022;2022-08-02T01:20:15;1.50;;;1.50;;
7813;SDS011;3952;48.364;16.022;2022-08-02T01:23:19;1.20;;;1.10;;
7813;SDS011;3952;48.364;16.022;2022-08-02T01:26:08;3.33;;;1.40;;
7813;SDS011;3952;48.364;16.022;2022-08-02T01:28:53;2.00;;;1.40;;
7813;SDS011;3952;48.364;16.022;2022-08-02T01:31:26;1.83;;;1.60;;
7813;SDS011;3952;48.364;16.022;2022-08-02T01:33:58;3.90;;;1.57;;
7813;SDS011;3952;48.364;16.022;2022-08-02T01:36:30;1.60;;;1.50;;
7813;SDS011;3952;48.364;16.022;2022-08-02T01:39:01;1.77;;;1.50;;
7813;SDS011;3952;48.364;16.022;2022-08-02T01:41:31;2.63;;;1.50;;
7813;SDS011;3952;48.364;16.022;2022-08-02T01:44:02;2.70;;;1.80;;
7813;SDS011;3952;48.364;16.022;2022-08-02T01:46:30;1.57;;;1.40;;
7813;SDS011;3952;48.364;16.022;2022-08-02T01:49:02;3.40;;;1.90;;
7813;SDS011;3952;48.364;16.022;2022-08-02T01:51:32;1.70;;;1.60;;
7813;SDS011;3952;48.364;16.022;2022-08-02T01:54:19;1.60;;;1.50;;
7813;SDS011;3952;48.364;16.022;2022-08-02T01:56:50;1.80;;;1.70;;
7813;SDS011;3952;48.364;16.022;2022-08-02T01:59:20;2.93;;;1.63;;
7813;SDS011;3952;48.364;16.022;2022-08-02T02:01:50;2.43;;;1.53;;
7813;SDS011;3952;48.364;16.022;2022-08-02T02:04:18;2.07;;;1.97;;
7813;SDS011;3952;48.364;16.022;2022-08-02T02:06:47;2.30;;;1.30;;
7813;SDS011;3952;48.364;16.022;2022-08-02T02:09:16;1.90;;;1.70;;
7813;SDS011;3952;48.364;16.022;2022-08-02T02:11:45;3.00;;;1.70;;
7813;SDS011;3952;48.364;16.022;2022-08-02T02:14:14;2.70;;;1.80;;
7813;SDS011;3952;48.364;16.022;2022-08-02T02:16:45;1.60;;;1.60;;
7813;SDS011;3952;48.364;16.022;2022-08-02T02:19:14;1.57;;;1.50;;
7813;SDS011;3952;48.364;16.022;2022-08-02T02:21:44;1.90;;;1.60;;
7813;SDS011;3952;48.364;16.022;2022-08-02T02:24:11;1.60;;;1.60;;
7813;SDS011;3952;48.364;16.022;2022-08-02T02:26:39;1.50;;;1.50;;
7813;SDS011;3952;48.364;16.022;2022-08-02T02:29:08;1.70;;;1.60;;
7813;SDS011;3952;48.364;16.022;2022-08-02T02:31:37;1.73;;;1.60;;
7813;SDS011;3952;48.364;16.022;2022-08-02T02:34:08;2.67;;;1.70;;
7813;SDS011;3952;48.364;16.022;2022-08-02T02:36:40;2.27;;;2.07;;
7813;SDS011;3952;48.364;16.022;2022-08-02T02:39:11;2.20;;;1.63;;
7813;SDS011;3952;48.364;16.022;2022-08-02T02:41:41;1.57;;;1.47;;
7813;SDS011;3952;48.364;16.022;2022-08-02T02:44:10;2.37;;;1.80;;
7813;SDS011;3952;48.364;16.022;2022-08-02T02:46:42;2.63;;;1.40;;
7813;SDS011;3952;48.364;16.022;2022-08-02T02:49:11;1.80;;;1.70;;
7813;SDS011;3952;48.364;16.022;2022-08-02T02:51:40;2.80;;;1.77;;
7813;SDS011;3952;48.364;16.022;2022-08-02T02:54:09;2.93;;;1.60;;
7813;SDS011;3952;48.364;16.022;2022-08-02T02:56:38;1.60;;;1.50;;
7813;SDS011;3952;48.364;16.022;2022-08-02T02:59:06;2.00;;;1.90;;
7813;SDS011;3952;48.364;16.022;2022-08-02T03:01:34;1.80;;;1.70;;
7813;SDS011;3952;48.364;16.022;2022-08-02T03:04:03;1.70;;;1.60;;
7813;SDS011;3952;48.364;16.022;2022-08-02T03:06:33;2.00;;;1.90;;
7813;SDS011;3952;48.364;16.022;2022-08-02T03:09:02;1.90;;;1.80;;
7813;SDS011;3952;48.364;16.022;2022-08-02T03:11:30;2.30;;;2.20;;
7813;SDS011;3952;48.364;16.022;2022-08-02T03:13:58;2.10;;;2.00;;
7813;SDS011;3952;48.364;16.022;2022-08-02T03:16:28;2.07;;;1.97;;
7813;SDS011;3952;48.364;16.022;2022-08-02T03:18:56;1.70;;;1.60;;
7813;SDS011;3952;48.364;16.022;2022-08-02T03:21:23;2.03;;;1.93;;
7813;SDS011;3952;48.364;16.022;2022-08-02T03:23:52;3.43;;;1.67;;
7813;SDS011;3952;48.364;16.022;2022-08-02T03:26:19;2.20;;;2.00;;
7813;SDS011;3952;48.364;16.022;2022-08-02T03:28:46;2.10;;;1.90;;
7813;SDS011;3952;48.364;16.022;2022-08-02T03:31:13;3.13;;;1.80;;
7813;SDS011;3952;48.364;16.022;2022-08-02T03:33:41;1.93;;;1.83;;
7813;SDS011;3952;48.364;16.022;2022-08-02T03:36:09;1.80;;;1.47;;
7813;SDS011;3952;48.364;16.022;2022-08-02T03:38:38;1.77;;;1.67;;
7813;SDS011;3952;48.364;16.022;2022-08-02T03:41:08;1.80;;;1.70;;
7813;SDS011;3952;48.364;16.022;2022-08-02T03:43:38;2.70;;;1.80;;
7813;SDS011;3952;48.364;16.022;2022-08-02T03:46:08;1.80;;;1.70;;
7813;SDS011;3952;48.364;16.022;2022-08-02T03:48:35;1.83;;;1.73;;
7813;SDS011;3952;48.364;16.022;2022-08-02T03:51:03;2.33;;;1.90;;
7813;SDS011;3952;48.364;16.022;2022-08-02T03:53:32;3.53;;;1.90;;
7813;SDS011;3952;48.364;16.022;2022-08-02T03:55:59;5.33;;;2.07;;
7813;SDS011;3952;48.364;16.022;2022-08-02T03:58:29;1.93;;;1.83;;
7813;SDS011;3952;48.364;16.022;2022-08-02T04:00:56;2.10;;;1.90;;
7813;SDS011;3952;48.364;16.022;2022-08-02T04:03:23;2.07;;;1.97;;
7813;SDS011;3952;48.364;16.022;2022-08-02T04:05:51;2.33;;;2.13;;
7813;SDS011;3952;48.364;16.022;2022-08-02T04:08:18;2.20;;;2.10;;
7813;SDS011;3952;48.364;16.022;2022-08-02T04:10:46;1.97;;;1.87;;
7813;SDS011;3952;48.364;16.022;2022-08-02T04:13:33;2.00;;;2.00;;
7813;SDS011;3952;48.364;16.022;2022-08-02T04:16:03;2.80;;;2.07;;
7813;SDS011;3952;48.364;16.022;2022-08-02T04:18:35;2.33;;;1.80;;
7813;SDS011;3952;48.364;16.022;2022-08-02T04:21:08;2.53;;;2.07;;
7813;SDS011;3952;48.364;16.022;2022-08-02T04:23:41;1.97;;;1.87;;
7813;SDS011;3952;48.364;16.022;2022-08-02T04:26:10;2.20;;;2.10;;
7813;SDS011;3952;48.364;16.022;2022-08-02T04:28:40;1.80;;;1.70;;
7813;SDS011;3952;48.364;16.022;2022-08-02T04:31:10;1.80;;;1.70;;
7813;SDS011;3952;48.364;16.022;2022-08-02T04:33:38;2.00;;;1.90;;
7813;SDS011;3952;48.364;16.022;2022-08-02T04:36:06;1.53;;;1.53;;
7813;SDS011;3952;48.364;16.022;2022-08-02T04:38:34;2.20;;;1.97;;
7813;SDS011;3952;48.364;16.022;2022-08-02T04:41:03;1.90;;;1.80;;
7813;SDS011;3952;48.364;16.022;2022-08-02T04:43:31;1.73;;;1.73;;
7813;SDS011;3952;48.364;16.022;2022-08-02T04:45:59;2.37;;;2.20;;
7813;SDS011;3952;48.364;16.022;2022-08-02T04:48:27;1.70;;;1.70;;
7813;SDS011;3952;48.364;16.022;2022-08-02T04:50:55;1.87;;;1.80;;
7813;SDS011;3952;48.364;16.022;2022-08-02T04:53:22;2.23;;;2.03;;
7813;SDS011;3952;48.364;16.022;2022-08-02T04:55:49;2.67;;;2.43;;
7813;SDS011;3952;48.364;16.022;2022-08-02T04:58:17;2.17;;;1.97;;
7813;SDS011;3952;48.364;16.022;2022-08-02T05:00:44;1.90;;;1.80;;
7813;SDS011;3952;48.364;16.022;2022-08-02T05:03:12;2.00;;;1.90;;
7813;SDS011;3952;48.364;16.022;2022-08-02T05:05:40;3.23;;;2.10;;
7813;SDS011;3952;48.364;16.022;2022-08-02T05:08:07;1.77;;;1.67;;
7813;SDS011;3952;48.364;16.022;2022-08-02T05:10:34;2.00;;;1.90;;
7813;SDS011;3952;48.364;16.022;2022-08-02T05:13:02;2.03;;;1.93;;
7813;SDS011;3952;48.364;16.022;2022-08-02T05:15:31;1.90;;;1.80;;
7813;SDS011;3952;48.364;16.022;2022-08-02T05:17:58;1.90;;;1.87;;
7813;SDS011;3952;48.364;16.022;2022-08-02T05:20:28;2.03;;;1.93;;
7813;SDS011;3952;48.364;16.022;2022-08-02T05:22:55;1.90;;;1.80;;
7813;SDS011;3952;48.364;16.022;2022-08-02T05:25:22;2.03;;;2.03;;
7813;SDS011;3952;48.364;16.022;2022-08-02T05:27:49;2.40;;;2.30;;
7813;SDS011;3952;48.364;16.022;2022-08-02T05:30:16;1.87;;;1.77;;
7813;SDS011;3952;48.364;16.022;2022-08-02T05:32:45;2.03;;;1.87;;
7813;SDS011;3952;48.364;16.022;2022-08-02T05:35:16;2.43;;;2.27;;
7813;SDS011;3952;48.364;16.022;2022-08-02T05:37:46;2.33;;;1.80;;
7813;SDS011;3952;48.364;16.022;2022-08-02T05:40:14;1.97;;;1.90;;
7813;SDS011;3952;48.364;16.022;2022-08-02T05:42:42;2.20;;;2.10;;
7813;SDS011;3952;48.364;16.022;2022-08-02T05:45:10;2.03;;;1.93;;
7813;SDS011;3952;48.364;16.022;2022-08-02T05:47:38;2.00;;;1.90;;
7813;SDS011;3952;48.364;16.022;2022-08-02T05:50:06;2.40;;;2.30;;
7813;SDS011;3952;48.364;16.022;2022-08-02T05:52:39;2.20;;;2.10;;
7813;SDS011;3952;48.364;16.022;2022-08-02T05:55:14;2.10;;;2.00;;
7813;SDS011;3952;48.364;16.022;2022-08-02T05:57:47;2.20;;;2.10;;
7813;SDS011;3952;48.364;16.022;2022-08-02T06:00:18;2.13;;;2.03;;
7813;SDS011;3952;48.364;16.022;2022-08-02T06:05:48;3.00;;;2.70;;
7813;SDS011;3952;48.364;16.022;2022-08-02T06:08:19;2.20;;;2.00;;
7813;SDS011;3952;48.364;16.022;2022-08-02T06:10:51;3.07;;;2.50;;
7813;SDS011;3952;48.364;16.022;2022-08-02T06:13:24;2.53;;;2.33;;
7813;SDS011;3952;48.364;16.022;2022-08-02T06:15:52;2.30;;;1.97;;
7813;SDS011;3952;48.364;16.022;2022-08-02T06:18:23;1.90;;;1.80;;
7813;SDS011;3952;48.364;16.022;2022-08-02T06:20:52;2.20;;;2.00;;
7813;SDS011;3952;48.364;16.022;2022-08-02T06:23:23;3.23;;;2.30;;
7813;SDS011;3952;48.364;16.022;2022-08-02T06:25:54;2.63;;;2.10;;
7813;SDS011;3952;48.364;16.022;2022-08-02T06:28:23;2.33;;;1.87;;
7813;SDS011;3952;48.364;16.022;2022-08-02T06:30:51;1.93;;;1.93;;
7813;SDS011;3952;48.364;16.022;2022-08-02T06:33:18;2.17;;;2.00;;
7813;SDS011;3952;48.364;16.022;2022-08-02T06:35:49;2.07;;;1.97;;
7813;SDS011;3952;48.364;16.022;2022-08-02T06:38:23;2.23;;;2.13;;
7813;SDS011;3952;48.364;16.022;2022-08-02T06:40:54;1.97;;;1.97;;
7813;SDS011;3952;48.364;16.022;2022-08-02T06:43:32;2.20;;;2.10;;
7813;SDS011;3952;48.364;16.022;2022-08-02T06:46:07;2.30;;;2.20;;
7813;SDS011;3952;48.364;16.022;2022-08-02T06:48:35;2.37;;;2.27;;
7813;SDS011;3952;48.364;16.022;2022-08-02T06:51:02;2.40;;;2.30;;
7813;SDS011;3952;48.364;16.022;2022-08-02T06:53:30;2.20;;;2.10;;
7813;SDS011;3952;48.364;16.022;2022-08-02T06:55:59;3.13;;;2.60;;
7813;SDS011;3952;48.364;16.022;2022-08-02T06:58:26;2.70;;;2.50;;
7813;SDS011;3952;48.364;16.022;2022-08-02T07:00:54;2.37;;;2.27;;
7813;SDS011;3952;48.364;16.022;2022-08-02T07:03:21;2.53;;;2.33;;
7813;SDS011;3952;48.364;16.022;2022-08-02T07:05:49;2.50;;;2.40;;
7813;SDS011;3952;48.364;16.022;2022-08-02T07:08:17;2.13;;;2.00;;
7813;SDS011;3952;48.364;16.022;2022-08-02T07:10:45;2.30;;;2.20;;
7813;SDS011;3952;48.364;16.022;2022-08-02T07:13:14;4.40;;;2.10;;
7813;SDS011;3952;48.364;16.022;2022-08-02T07:15:41;2.83;;;1.90;;
7813;SDS011;3952;48.364;16.022;2022-08-02T07:18:08;2.00;;;1.90;;
7813;SDS011;3952;48.364;16.022;2022-08-02T07:20:39;2.20;;;2.10;;
7813;SDS011;3952;48.364;16.022;2022-08-02T07:23:07;2.30;;;2.20;;
7813;SDS011;3952;48.364;16.022;2022-08-02T07:25:34;2.23;;;2.13;;
7813;SDS011;3952;48.364;16.022;2022-08-02T07:28:02;2.37;;;2.17;;
7813;SDS011;3952;48.364;16.022;2022-08-02T07:30:31;2.23;;;2.07;;
7813;SDS011;3952;48.364;16.022;2022-08-02T07:32:58;2.43;;;2.33;;
7813;SDS011;3952;48.364;16.022;2022-08-02T07:35:25;1.77;;;1.70;;
7813;SDS011;3952;48.364;16.022;2022-08-02T07:37:53;2.00;;;1.90;;
7813;SDS011;3952;48.364;16.022;2022-08-02T07:40:20;2.30;;;2.20;;
7813;SDS011;3952;48.364;16.022;2022-08-02T07:42:48;2.40;;;2.00;;
7813;SDS011;3952;48.364;16.022;2022-08-02T07:45:17;2.17;;;2.07;;
7813;SDS011;3952;48.364;16.022;2022-08-02T07:47:46;2.30;;;2.10;;
7813;SDS011;3952;48.364;16.022;2022-08-02T07:50:14;3.60;;;2.50;;
7813;SDS011;3952;48.364;16.022;2022-08-02T07:52:43;7.25;;;3.10;;
7813;SDS011;3952;48.364;16.022;2022-08-02T07:55:10;3.83;;;3.50;;
7813;SDS011;3952;48.364;16.022;2022-08-02T07:57:39;2.87;;;2.70;;
7813;SDS011;3952;48.364;16.022;2022-08-02T08:00:07;2.88;;;2.70;;
7813;SDS011;3952;48.364;16.022;2022-08-02T08:02:35;3.25;;;2.95;;
7813;SDS011;3952;48.364;16.022;2022-08-02T08:05:05;3.10;;;2.90;;
7813;SDS011;3952;48.364;16.022;2022-08-02T08:07:33;3.00;;;2.80;;
7813;SDS011;3952;48.364;16.022;2022-08-02T08:10:00;3.03;;;2.63;;
7813;SDS011;3952;48.364;16.022;2022-08-02T08:12:27;2.83;;;2.67;;
7813;SDS011;3952;48.364;16.022;2022-08-02T08:14:55;2.40;;;2.30;;
7813;SDS011;3952;48.364;16.022;2022-08-02T08:17:22;2.65;;;2.45;;
7813;SDS011;3952;48.364;16.022;2022-08-02T08:19:49;2.85;;;2.65;;
7813;SDS011;3952;48.364;16.022;2022-08-02T08:22:18;3.72;;;2.70;;
7813;SDS011;3952;48.364;16.022;2022-08-02T08:24:45;2.20;;;2.10;;
7813;SDS011;3952;48.364;16.022;2022-08-02T08:27:12;2.40;;;2.30;;
7813;SDS011;3952;48.364;16.022;2022-08-02T08:29:40;2.53;;;2.42;;
7813;SDS011;3952;48.364;16.022;2022-08-02T08:32:07;2.40;;;2.20;;
7813;SDS011;3952;48.364;16.022;2022-08-02T08:34:35;2.08;;;1.92;;
7813;SDS011;3952;48.364;16.022;2022-08-02T08:37:02;2.97;;;2.10;;
7813;SDS011;3952;48.364;16.022;2022-08-02T08:39:31;2.75;;;2.55;;
7813;SDS011;3952;48.364;16.022;2022-08-02T08:41:59;2.13;;;2.08;;
7813;SDS011;3952;48.364;16.022;2022-08-02T08:44:26;2.60;;;2.40;;
7813;SDS011;3952;48.364;16.022;2022-08-02T08:46:54;2.63;;;2.47;;
7813;SDS011;3952;48.364;16.022;2022-08-02T08:49:24;3.75;;;2.38;;
7813;SDS011;3952;48.364;16.022;2022-08-02T08:51:55;2.50;;;2.35;;
7813;SDS011;3952;48.364;16.022;2022-08-02T08:54:25;2.55;;;2.45;;
7813;SDS011;3952;48.364;16.022;2022-08-02T08:56:56;2.30;;;2.20;;
7813;SDS011;3952;48.364;16.022;2022-08-02T08:59:25;2.33;;;2.13;;
7813;SDS011;3952;48.364;16.022;2022-08-02T09:01:52;2.83;;;2.63;;
7813;SDS011;3952;48.364;16.022;2022-08-02T09:04:21;2.05;;;1.95;;
7813;SDS011;3952;48.364;16.022;2022-08-02T09:06:48;2.30;;;2.20;;
7813;SDS011;3952;48.364;16.022;2022-08-02T09:09:15;2.40;;;2.30;;
7813;SDS011;3952;48.364;16.022;2022-08-02T09:11:43;2.22;;;2.13;;
7813;SDS011;3952;48.364;16.022;2022-08-02T09:14:11;2.55;;;2.45;;
7813;SDS011;3952;48.364;16.022;2022-08-02T09:16:52;3.53;;;3.22;;
7813;SDS011;3952;48.364;16.022;2022-08-02T09:19:20;2.42;;;2.33;;
7813;SDS011;3952;48.364;16.022;2022-08-02T09:21:49;2.33;;;2.22;;
7813;SDS011;3952;48.364;16.022;2022-08-02T09:24:19;1.85;;;1.85;;
7813;SDS011;3952;48.364;16.022;2022-08-02T09:26:47;1.92;;;1.83;;
7813;SDS011;3952;48.364;16.022;2022-08-02T09:29:17;2.08;;;1.85;;
7813;SDS011;3952;48.364;16.022;2022-08-02T09:31:47;2.20;;;2.10;;
7813;SDS011;3952;48.364;16.022;2022-08-02T09:34:15;2.55;;;1.83;;
7813;SDS011;3952;48.364;16.022;2022-08-02T09:36:43;1.80;;;1.80;;
7813;SDS011;3952;48.364;16.022;2022-08-02T09:39:13;1.88;;;1.77;;
7813;SDS011;3952;48.364;16.022;2022-08-02T09:41:42;1.85;;;1.80;;
7813;SDS011;3952;48.364;16.022;2022-08-02T09:44:11;2.00;;;1.90;;
7813;SDS011;3952;48.364;16.022;2022-08-02T09:46:42;1.63;;;1.60;;
7813;SDS011;3952;48.364;16.022;2022-08-02T09:49:11;3.60;;;1.65;;
7813;SDS011;3952;48.364;16.022;2022-08-02T09:51:48;1.80;;;1.70;;
7813;SDS011;3952;48.364;16.022;2022-08-02T09:54:18;1.45;;;1.45;;
7813;SDS011;3952;48.364;16.022;2022-08-02T09:56:46;1.80;;;1.70;;
7813;SDS011;3952;48.364;16.022;2022-08-02T09:59:16;1.73;;;1.63;;
7813;SDS011;3952;48.364;16.022;2022-08-02T10:01:46;2.83;;;1.90;;
7813;SDS011;3952;48.364;16.022;2022-08-02T10:04:14;1.75;;;1.70;;
7813;SDS011;3952;48.364;16.022;2022-08-02T10:06:45;1.60;;;1.50;;
7813;SDS011;3952;48.364;16.022;2022-08-02T10:09:14;1.40;;;1.40;;
7813;SDS011;3952;48.364;16.022;2022-08-02T10:11:41;1.77;;;1.35;;
7813;SDS011;3952;48.364;16.022;2022-08-02T10:14:09;1.20;;;1.20;;
7813;SDS011;3952;48.364;16.022;2022-08-02T10:16:37;1.27;;;1.25;;
7813;SDS011;3952;48.364;16.022;2022-08-02T10:19:07;1.30;;;1.30;;
7813;SDS011;3952;48.364;16.022;2022-08-02T10:21:36;2.13;;;1.20;;
7813;SDS011;3952;48.364;16.022;2022-08-02T10:24:22;1.40;;;1.40;;
7813;SDS011;3952;48.364;16.022;2022-08-02T10:26:51;1.50;;;1.40;;
7813;SDS011;3952;48.364;16.022;2022-08-02T10:29:22;1.67;;;1.58;;
7813;SDS011;3952;48.364;16.022;2022-08-02T10:31:55;1.75;;;1.65;;
7813;SDS011;3952;48.364;16.022;2022-08-02T10:34:28;1.20;;;1.10;;
7813;SDS011;3952;48.364;16.022;2022-08-02T10:37:00;1.63;;;1.52;;
7813;SDS011;3952;48.364;16.022;2022-08-02T10:39:36;1.35;;;1.35;;
7813;SDS011;3952;48.364;16.022;2022-08-02T10:42:05;1.63;;;1.63;;
7813;SDS011;3952;48.364;16.022;2022-08-02T10:44:32;1.77;;;1.77;;
7813;SDS011;3952;48.364;16.022;2022-08-02T10:47:22;1.98;;;1.88;;
7813;SDS011;3952;48.364;16.022;2022-08-02T10:49:53;1.80;;;1.70;;
7813;SDS011;3952;48.364;16.022;2022-08-02T10:52:22;1.60;;;1.60;;
7813;SDS011;3952;48.364;16.022;2022-08-02T10:54:53;1.73;;;1.73;;
7813;SDS011;3952;48.364;16.022;2022-08-02T10:57:22;1.92;;;1.83;;
7813;SDS011;3952;48.364;16.022;2022-08-02T10:59:51;1.55;;;1.55;;
7813;SDS011;3952;48.364;16.022;2022-08-02T11:02:31;1.63;;;1.60;;
7813;SDS011;3952;48.364;16.022;2022-08-02T11:05:09;2.78;;;1.50;;
7813;SDS011;3952;48.364;16.022;2022-08-02T11:07:39;1.55;;;1.52;;
7813;SDS011;3952;48.364;16.022;2022-08-02T11:13:02;1.30;;;1.30;;
7813;SDS011;3952;48.364;16.022;2022-08-02T11:15:46;1.30;;;1.30;;
7813;SDS011;3952;48.364;16.022;2022-08-02T11:18:16;1.52;;;1.50;;
7813;SDS011;3952;48.364;16.022;2022-08-02T11:20:45;2.00;;;1.90;;
7813;SDS011;3952;48.364;16.022;2022-08-02T11:26:02;1.20;;;1.20;;
7813;SDS011;3952;48.364;16.022;2022-08-02T11:29:09;1.30;;;1.30;;
7813;SDS011;3952;48.364;16.022;2022-08-02T11:31:37;1.30;;;1.30;;
7813;SDS011;3952;48.364;16.022;2022-08-02T11:34:05;1.58;;;1.58;;
7813;SDS011;3952;48.364;16.022;2022-08-02T11:36:41;1.20;;;1.20;;
7813;SDS011;3952;48.364;16.022;2022-08-02T11:39:10;1.48;;;1.33;;
7813;SDS011;3952;48.364;16.022;2022-08-02T11:41:38;1.20;;;1.20;;
7813;SDS011;3952;48.364;16.022;2022-08-02T11:44:05;1.10;;;1.10;;
7813;SDS011;3952;48.364;16.022;2022-08-02T11:46:32;3.05;;;1.30;;
7813;SDS011;3952;48.364;16.022;2022-08-02T11:49:10;1.40;;;1.30;;
7813;SDS011;3952;48.364;16.022;2022-08-02T11:51:51;2.95;;;1.50;;
7813;SDS011;3952;48.364;16.022;2022-08-02T11:54:22;1.23;;;1.23;;
7813;SDS011;3952;48.364;16.022;2022-08-02T11:56:50;1.45;;;1.38;;
7813;SDS011;3952;48.364;16.022;2022-08-02T11:59:17;1.70;;;1.70;;
7813;SDS011;3952;48.364;16.022;2022-08-02T12:01:44;1.40;;;1.40;;
7813;SDS011;3952;48.364;16.022;2022-08-02T12:04:14;1.42;;;1.42;;
7813;SDS011;3952;48.364;16.022;2022-08-02T12:06:57;1.55;;;1.50;;
7813;SDS011;3952;48.364;16.022;2022-08-02T12:09:25;1.58;;;1.48;;
7813;SDS011;3952;48.364;16.022;2022-08-02T12:11:54;1.50;;;1.50;;
7813;SDS011;3952;48.364;16.022;2022-08-02T12:14:23;1.27;;;1.27;;
7813;SDS011;3952;48.364;16.022;2022-08-02T12:16:52;1.42;;;1.33;;
7813;SDS011;3952;48.364;16.022;2022-08-02T12:19:37;1.33;;;1.33;;
7813;SDS011;3952;48.364;16.022;2022-08-02T12:22:09;1.17;;;1.17;;
7813;SDS011;3952;48.364;16.022;2022-08-02T12:24:39;1.20;;;1.20;;
7813;SDS011;3952;48.364;16.022;2022-08-02T12:27:07;1.55;;;1.48;;
7813;SDS011;3952;48.364;16.022;2022-08-02T12:29:35;1.65;;;1.38;;
7813;SDS011;3952;48.364;16.022;2022-08-02T12:32:03;1.15;;;1.15;;
7813;SDS011;3952;48.364;16.022;2022-08-02T12:34:32;1.20;;;1.20;;
7813;SDS011;3952;48.364;16.022;2022-08-02T12:37:01;1.17;;;1.17;;
7813;SDS011;3952;48.364;16.022;2022-08-02T12:39:35;1.20;;;1.20;;
7813;SDS011;3952;48.364;16.022;2022-08-02T12:42:04;1.10;;;1.10;;
7813;SDS011;3952;48.364;16.022;2022-08-02T12:44:35;1.27;;;1.27;;
7813;SDS011;3952;48.364;16.022;2022-08-02T12:47:03;1.10;;;1.08;;
7813;SDS011;3952;48.364;16.022;2022-08-02T12:49:32;1.17;;;1.10;;
7813;SDS011;3952;48.364;16.022;2022-08-02T12:51:59;1.25;;;1.25;;
7813;SDS011;3952;48.364;16.022;2022-08-02T12:54:27;1.20;;;1.20;;
7813;SDS011;3952;48.364;16.022;2022-08-02T12:56:58;0.88;;;0.88;;
7813;SDS011;3952;48.364;16.022;2022-08-02T12:59:37;1.35;;;1.35;;
7813;SDS011;3952;48.364;16.022;2022-08-02T13:02:05;1.10;;;1.10;;
7813;SDS011;3952;48.364;16.022;2022-08-02T13:04:34;1.08;;;1.08;;
7813;SDS011;3952;48.364;16.022;2022-08-02T13:07:02;1.17;;;1.17;;
7813;SDS011;3952;48.364;16.022;2022-08-02T13:09:34;1.05;;;1.05;;
7813;SDS011;3952;48.364;16.022;2022-08-02T13:12:03;1.23;;;1.23;;
7813;SDS011;3952;48.364;16.022;2022-08-02T13:14:31;1.33;;;1.23;;
7813;SDS011;3952;48.364;16.022;2022-08-02T13:16:59;1.25;;;1.25;;
7813;SDS011;3952;48.364;16.022;2022-08-02T13:19:27;1.13;;;1.13;;
7813;SDS011;3952;48.364;16.022;2022-08-02T13:21:54;1.38;;;1.38;;
7813;SDS011;3952;48.364;16.022;2022-08-02T13:24:21;1.27;;;1.27;;
7813;SDS011;3952;48.364;16.022;2022-08-02T13:26:48;1.48;;;1.38;;
7813;SDS011;3952;48.364;16.022;2022-08-02T13:29:17;1.00;;;1.00;;
7813;SDS011;3952;48.364;16.022;2022-08-02T13:31:44;1.10;;;1.10;;
7813;SDS011;3952;48.364;16.022;2022-08-02T13:34:11;1.42;;;1.42;;
7813;SDS011;3952;48.364;16.022;2022-08-02T13:36:40;1.20;;;1.20;;
7813;SDS011;3952;48.364;16.022;2022-08-02T13:39:07;1.00;;;1.00;;
7813;SDS011;3952;48.364;16.022;2022-08-02T13:41:36;1.50;;;1.20;;
7813;SDS011;3952;48.364;16.022;2022-08-02T13:44:03;1.17;;;1.17;;
7813;SDS011;3952;48.364;16.022;2022-08-02T13:46:33;1.20;;;1.20;;
7813;SDS011;3952;48.364;16.022;2022-08-02T13:49:03;1.08;;;1.08;;
7813;SDS011;3952;48.364;16.022;2022-08-02T13:51:31;1.17;;;1.10;;
7813;SDS011;3952;48.364;16.022;2022-08-02T13:53:58;1.40;;;1.35;;
7813;SDS011;3952;48.364;16.022;2022-08-02T13:56:25;1.10;;;1.10;;
7813;SDS011;3952;48.364;16.022;2022-08-02T13:58:52;2.95;;;1.58;;
7813;SDS011;3952;48.364;16.022;2022-08-02T14:01:20;1.25;;;1.25;;
7813;SDS011;3952;48.364;16.022;2022-08-02T14:03:48;1.10;;;1.10;;
7813;SDS011;3952;48.364;16.022;2022-08-02T14:06:17;2.97;;;1.50;;
7813;SDS011;3952;48.364;16.022;2022-08-02T14:08:44;1.20;;;1.08;;
7813;SDS011;3952;48.364;16.022;2022-08-02T14:11:11;1.48;;;1.38;;
7813;SDS011;3952;48.364;16.022;2022-08-02T14:13:38;0.90;;;0.90;;
7813;SDS011;3952;48.364;16.022;2022-08-02T14:16:05;2.17;;;1.05;;
7813;SDS011;3952;48.364;16.022;2022-08-02T14:18:32;1.00;;;1.00;;
7813;SDS011;3952;48.364;16.022;2022-08-02T14:21:01;1.50;;;1.10;;
7813;SDS011;3952;48.364;16.022;2022-08-02T14:23:28;1.10;;;1.10;;
7813;SDS011;3952;48.364;16.022;2022-08-02T14:25:56;1.20;;;1.20;;
7813;SDS011;3952;48.364;16.022;2022-08-02T14:28:24;1.10;;;1.10;;
7813;SDS011;3952;48.364;16.022;2022-08-02T14:30:51;1.30;;;1.23;;
7813;SDS011;3952;48.364;16.022;2022-08-02T14:33:18;1.20;;;1.20;;
7813;SDS011;3952;48.364;16.022;2022-08-02T14:35:46;1.15;;;1.15;;
7813;SDS011;3952;48.364;16.022;2022-08-02T14:38:14;1.20;;;1.20;;
7813;SDS011;3952;48.364;16.022;2022-08-02T14:40:43;1.98;;;1.23;;
7813;SDS011;3952;48.364;16.022;2022-08-02T14:43:10;1.50;;;1.25;;
7813;SDS011;3952;48.364;16.022;2022-08-02T14:45:58;0.88;;;0.88;;
7813;SDS011;3952;48.364;16.022;2022-08-02T14:48:26;1.10;;;1.10;;
7813;SDS011;3952;48.364;16.022;2022-08-02T14:50:53;1.02;;;1.02;;
7813;SDS011;3952;48.364;16.022;2022-08-02T14:53:23;1.15;;;1.15;;
7813;SDS011;3952;48.364;16.022;2022-08-02T14:55:50;0.80;;;0.80;;
7813;SDS011;3952;48.364;16.022;2022-08-02T14:58:17;0.80;;;0.80;;
7813;SDS011;3952;48.364;16.022;2022-08-02T15:00:44;1.10;;;1.10;;
7813;SDS011;3952;48.364;16.022;2022-08-02T15:03:12;0.85;;;0.85;;
7813;SDS011;3952;48.364;16.022;2022-08-02T15:05:39;1.00;;;1.00;;
7813;SDS011;3952;48.364;16.022;2022-08-02T15:08:06;1.10;;;1.10;;
7813;SDS011;3952;48.364;16.022;2022-08-02T15:10:35;0.98;;;0.98;;
7813;SDS011;3952;48.364;16.022;2022-08-02T15:13:02;1.17;;;1.17;;
7813;SDS011;3952;48.364;16.022;2022-08-02T15:15:29;2.78;;;1.40;;
7813;SDS011;3952;48.364;16.022;2022-08-02T15:17:56;1.10;;;1.10;;
7813;SDS011;3952;48.364;16.022;2022-08-02T15:20:24;1.00;;;1.00;;
7813;SDS011;3952;48.364;16.022;2022-08-02T15:22:51;1.30;;;1.30;;